createdAt,value
2018-03-11T00:03:22.428Z,84.96
2018-03-11T00:05:50.024Z,84.73
2018-03-11T00:08:17.585Z,84.38
2018-03-11T00:10:45.185Z,84.93
2018-03-11T00:13:12.797Z,85.41
2018-03-11T00:15:40.356Z,85.98
2018-03-11T00:18:08.174Z,86.35
2018-03-11T00:20:35.865Z,86.26
2018-03-11T00:23:03.440Z,86.60
2018-03-11T00:25:31.015Z,86.55
2018-03-11T00:27:58.654Z,87.09
2018-03-11T00:30:26.214Z,87.00
2018-03-11T00:32:53.767Z,87.22
2018-03-11T00:35:21.350Z,87.36
2018-03-11T00:37:49.124Z,87.34
2018-03-11T00:40:16.681Z,87.17
2018-03-11T00:42:44.261Z,87.04
2018-03-11T00:45:11.833Z,87.59
2018-03-11T00:47:39.390Z,88.15
2018-03-11T00:50:06.978Z,88.24
2018-03-11T00:52:34.538Z,87.99
2018-03-11T00:55:02.087Z,87.75
2018-03-11T00:57:29.683Z,87.50
2018-03-11T00:59:57.284Z,87.50
2018-03-11T01:02:24.950Z,87.48
2018-03-11T01:04:52.547Z,86.95
2018-03-11T01:07:20.303Z,86.23
2018-03-11T01:09:47.855Z,86.26
2018-03-11T01:12:15.456Z,86.60
2018-03-11T01:14:43.020Z,86.64
2018-03-11T01:17:10.578Z,86.73
2018-03-11T01:19:38.183Z,87.04
2018-03-11T01:22:05.733Z,87.37
2018-03-11T01:24:33.496Z,87.92
2018-03-11T01:27:01.180Z,87.63
2018-03-11T01:29:28.742Z,87.46
2018-03-11T01:31:56.292Z,87.69
2018-03-11T01:34:23.911Z,88.31
2018-03-11T01:36:51.478Z,88.51
2018-03-11T01:39:19.083Z,87.84
2018-03-11T01:41:46.675Z,87.71
2018-03-11T01:44:14.389Z,87.89
2018-03-11T01:46:41.966Z,88.66
2018-03-11T01:49:09.731Z,88.84
2018-03-11T01:51:37.304Z,88.66
2018-03-11T01:54:04.868Z,88.40
2018-03-11T01:56:32.485Z,88.50
2018-03-11T01:59:00.045Z,88.41
2018-03-11T02:01:27.630Z,88.47
2018-03-11T02:03:55.269Z,88.28
2018-03-11T02:06:22.851Z,88.06
2018-03-11T02:08:50.418Z,87.98
2018-03-11T02:11:18.078Z,87.83
2018-03-11T02:13:45.927Z,87.27
2018-03-11T02:16:13.575Z,87.67
2018-03-11T02:18:41.267Z,87.53
2018-03-11T02:21:17.490Z,87.35
2018-03-11T02:23:45.131Z,86.92
2018-03-11T02:26:12.701Z,87.22
2018-03-11T02:28:40.258Z,87.24
2018-03-11T02:31:07.959Z,87.90
2018-03-11T02:33:35.542Z,87.59
2018-03-11T02:36:03.110Z,87.84
2018-03-11T02:38:30.706Z,87.99
2018-03-11T02:40:58.260Z,88.74
2018-03-11T02:43:25.818Z,88.66
2018-03-11T02:45:53.431Z,88.67
2018-03-11T02:48:20.983Z,88.93
2018-03-11T02:50:48.553Z,89.12
2018-03-11T02:53:16.171Z,88.67
2018-03-11T02:55:43.961Z,88.48
2018-03-11T02:58:11.506Z,88.67
2018-03-11T03:00:39.293Z,88.85
2018-03-11T03:03:06.844Z,89.11
2018-03-11T03:05:34.411Z,89.17
2018-03-11T03:08:02.013Z,88.86
2018-03-11T03:10:29.563Z,88.55
2018-03-11T03:12:57.142Z,87.96
2018-03-11T03:15:24.755Z,88.22
2018-03-11T03:17:52.322Z,88.32
2018-03-11T03:20:19.966Z,88.19
2018-03-11T03:22:47.651Z,88.34
2018-03-11T03:25:15.313Z,88.53
2018-03-11T03:27:42.942Z,89.00
2018-03-11T03:30:10.640Z,89.60
2018-03-11T03:32:38.300Z,89.86
2018-03-11T03:35:05.868Z,89.51
2018-03-11T03:37:33.488Z,89.82
2018-03-11T03:40:01.090Z,90.15
2018-03-11T03:42:28.661Z,90.51
2018-03-11T03:44:56.268Z,90.64
2018-03-11T03:47:23.832Z,90.17
2018-03-11T03:49:51.402Z,89.86
2018-03-11T03:52:18.996Z,89.98
2018-03-11T03:54:46.643Z,90.06
2018-03-11T03:57:14.211Z,90.34
2018-03-11T03:59:41.805Z,90.31
2018-03-11T04:02:09.380Z,90.06
2018-03-11T04:04:36.946Z,90.00
2018-03-11T04:07:10.434Z,90.09
2018-03-11T04:09:38.007Z,90.18
2018-03-11T04:12:05.587Z,89.66
2018-03-11T04:14:33.197Z,89.50
2018-03-11T04:17:00.924Z,89.41
2018-03-11T04:19:28.530Z,89.10
2018-03-11T04:21:56.221Z,88.62
2018-03-11T04:24:23.904Z,89.20
2018-03-11T04:26:51.467Z,90.28
2018-03-11T04:29:19.068Z,90.54
2018-03-11T04:31:46.676Z,90.60
2018-03-11T04:34:14.236Z,90.72
2018-03-11T04:36:42.217Z,90.86
2018-03-11T04:39:09.792Z,91.06
2018-03-11T04:41:37.350Z,91.85
2018-03-11T04:44:04.989Z,92.21
2018-03-11T04:46:32.543Z,92.26
2018-03-11T04:49:00.098Z,92.75
2018-03-11T04:51:27.704Z,92.65
2018-03-11T04:53:55.437Z,92.72
2018-03-11T04:56:23.087Z,93.23
2018-03-11T04:58:50.695Z,93.67
2018-03-11T05:01:18.257Z,93.72
2018-03-11T05:03:45.846Z,93.85
2018-03-11T05:06:13.446Z,93.81
2018-03-11T05:08:41.003Z,93.96
2018-03-11T05:11:08.567Z,93.94
2018-03-11T05:13:36.173Z,93.83
2018-03-11T05:16:03.796Z,93.53
2018-03-11T05:18:31.353Z,93.42
2018-03-11T05:20:58.975Z,91.38
2018-03-11T05:23:26.659Z,80.20
2018-03-11T05:25:54.224Z,69.84
2018-03-11T05:28:21.909Z,65.40
2018-03-11T05:30:49.545Z,65.80
2018-03-11T05:33:17.225Z,65.74
2018-03-11T05:35:44.822Z,61.52
2018-03-11T05:38:12.390Z,58.22
2018-03-11T05:40:39.959Z,56.20
2018-03-11T05:43:07.551Z,55.61
2018-03-11T05:45:35.109Z,55.61
2018-03-11T05:48:02.690Z,56.53
2018-03-11T05:50:30.293Z,54.88
2018-03-11T05:52:57.895Z,51.05
2018-03-11T05:55:25.454Z,46.55
2018-03-11T05:57:53.047Z,43.49
2018-03-11T06:00:20.688Z,42.10
2018-03-11T06:02:48.253Z,39.18
2018-03-11T06:05:15.852Z,39.40
2018-03-11T06:07:43.408Z,40.52
2018-03-11T06:10:10.965Z,43.63
2018-03-11T06:12:38.784Z,45.58
2018-03-11T06:15:06.335Z,48.54
2018-03-11T06:17:33.887Z,49.26
2018-03-11T06:20:01.511Z,52.24
2018-03-11T06:22:29.082Z,53.97
2018-03-11T06:24:56.730Z,56.26
2018-03-11T06:27:24.354Z,57.44
2018-03-11T06:29:51.926Z,59.58
2018-03-11T06:32:19.506Z,60.63
2018-03-11T06:34:47.185Z,58.34
2018-03-11T06:37:14.806Z,54.65
2018-03-11T06:39:42.455Z,52.12
2018-03-11T06:42:10.049Z,50.04
2018-03-11T06:44:37.610Z,48.97
2018-03-11T06:47:05.171Z,49.04
2018-03-11T06:49:32.758Z,46.48
2018-03-11T06:52:00.306Z,43.24
2018-03-11T06:54:27.867Z,39.58
2018-03-11T06:56:55.486Z,36.79
2018-03-11T06:59:23.053Z,33.91
2018-03-11T07:01:50.615Z,34.59
2018-03-11T07:04:18.228Z,31.93
2018-03-11T07:06:45.801Z,30.34
2018-03-11T07:09:13.346Z,30.61
2018-03-11T07:11:40.936Z,30.75
2018-03-11T07:14:08.512Z,31.06
2018-03-11T07:16:36.097Z,30.46
2018-03-11T07:19:03.687Z,29.76
2018-03-11T07:21:31.264Z,28.92
2018-03-11T07:23:58.846Z,30.26
2018-03-11T07:26:26.433Z,29.87
2018-03-11T07:28:54.164Z,29.35
2018-03-11T07:31:21.828Z,29.22
2018-03-11T07:33:49.484Z,28.44
2018-03-11T07:36:17.051Z,28.09
2018-03-11T07:38:44.651Z,27.49
2018-03-11T07:41:12.273Z,27.62
2018-03-11T07:43:39.848Z,27.06
2018-03-11T07:46:07.442Z,25.79
2018-03-11T07:48:35.008Z,25.98
2018-03-11T07:51:02.564Z,24.23
2018-03-11T07:53:30.175Z,24.26
2018-03-11T07:55:57.736Z,24.07
2018-03-11T07:58:25.288Z,24.38
2018-03-11T08:00:52.900Z,24.04
2018-03-11T08:03:20.472Z,22.63
2018-03-11T08:05:48.036Z,23.81
2018-03-11T08:08:15.636Z,23.42
2018-03-11T08:10:43.216Z,23.54
2018-03-11T08:13:10.780Z,23.53
2018-03-11T08:15:38.385Z,23.70
2018-03-11T08:18:05.955Z,23.87
2018-03-11T08:20:33.525Z,23.67
2018-03-11T08:23:01.181Z,24.97
2018-03-11T08:25:28.822Z,25.40
2018-03-11T08:27:56.387Z,26.35
2018-03-11T08:30:23.986Z,26.17
2018-03-11T08:32:51.558Z,25.83
2018-03-11T08:35:19.109Z,23.74
2018-03-11T08:37:46.708Z,23.51
2018-03-11T08:40:14.275Z,22.23
2018-03-11T08:42:41.839Z,22.04
2018-03-11T08:45:09.516Z,21.14
2018-03-11T08:47:37.085Z,21.33
2018-03-11T08:50:04.656Z,21.94
2018-03-11T08:52:32.235Z,22.42
2018-03-11T08:54:59.780Z,18.54
2018-03-11T08:57:27.335Z,17.59
2018-03-11T08:59:54.930Z,19.02
2018-03-11T09:02:22.474Z,20.95
2018-03-11T09:04:50.036Z,19.30
2018-03-11T09:07:17.616Z,19.84
2018-03-11T09:09:45.178Z,19.66
2018-03-11T09:12:12.750Z,18.81
2018-03-11T09:14:40.350Z,19.94
2018-03-11T09:17:07.917Z,20.16
2018-03-11T09:19:35.496Z,20.01
2018-03-11T09:22:03.101Z,18.87
2018-03-11T09:24:30.793Z,18.05
2018-03-11T09:26:58.453Z,19.02
2018-03-11T09:29:26.044Z,18.69
2018-03-11T09:31:53.608Z,18.85
2018-03-11T09:34:21.178Z,17.21
2018-03-11T09:36:48.767Z,17.41
2018-03-11T09:39:16.374Z,17.94
2018-03-11T09:41:44.046Z,18.02
2018-03-11T09:44:11.631Z,17.98
2018-03-11T09:46:39.190Z,16.92
2018-03-11T09:49:06.773Z,17.96
2018-03-11T09:51:34.366Z,17.64
2018-03-11T09:54:01.919Z,15.85
2018-03-11T09:56:29.459Z,15.66
2018-03-11T09:58:57.071Z,17.32
2018-03-11T10:01:24.716Z,17.79
2018-03-11T10:03:52.371Z,17.42
2018-03-11T10:06:19.964Z,17.49
2018-03-11T10:08:47.530Z,16.85
2018-03-11T10:11:15.098Z,18.02
2018-03-11T10:13:42.694Z,18.47
2018-03-11T10:16:10.248Z,19.97
2018-03-11T10:18:37.800Z,19.94
2018-03-11T10:21:05.386Z,19.15
2018-03-11T10:23:32.920Z,18.89
2018-03-11T10:26:00.467Z,18.16
2018-03-11T10:28:28.043Z,18.62
2018-03-11T10:30:55.591Z,18.45
2018-03-11T10:33:23.153Z,16.78
2018-03-11T10:35:50.950Z,17.55
2018-03-11T10:38:18.491Z,18.02
2018-03-11T10:40:46.049Z,17.41
2018-03-11T10:43:13.655Z,17.10
2018-03-11T10:45:41.416Z,17.66
2018-03-11T10:48:09.008Z,19.23
2018-03-11T10:50:36.684Z,17.51
2018-03-11T10:53:04.225Z,18.46
2018-03-11T10:55:31.772Z,19.63
2018-03-11T10:57:59.354Z,20.67
2018-03-11T11:00:27.900Z,21.20
2018-03-11T11:03:01.348Z,22.04
2018-03-11T11:05:29.059Z,22.19
2018-03-11T11:07:56.618Z,21.24
2018-03-11T11:10:24.204Z,21.01
2018-03-11T11:12:51.751Z,20.43
2018-03-11T11:15:19.312Z,20.64
2018-03-11T11:17:46.920Z,20.50
2018-03-11T11:20:14.484Z,21.99
2018-03-11T11:22:42.042Z,19.08
2018-03-11T11:25:09.641Z,18.89
2018-03-11T11:27:37.325Z,18.75
2018-03-11T11:30:04.893Z,19.41
2018-03-11T11:32:32.561Z,18.78
2018-03-11T11:35:00.101Z,18.89
2018-03-11T11:37:27.647Z,21.13
2018-03-11T11:39:55.228Z,21.86
2018-03-11T11:42:22.777Z,24.01
2018-03-11T11:44:50.336Z,23.16
2018-03-11T11:47:18.026Z,20.81
2018-03-11T11:49:45.589Z,21.62
2018-03-11T11:52:13.143Z,22.96
2018-03-11T11:54:40.727Z,21.98
2018-03-11T11:57:08.300Z,24.56
2018-03-11T11:59:35.849Z,22.27
2018-03-11T12:02:03.458Z,21.79
2018-03-11T12:04:31.029Z,21.20
2018-03-11T12:06:58.586Z,21.60
2018-03-11T12:09:26.190Z,19.32
2018-03-11T12:11:53.770Z,19.14
2018-03-11T12:14:21.332Z,19.57
2018-03-11T12:16:48.931Z,19.05
2018-03-11T12:19:16.492Z,17.50
2018-03-11T12:21:44.041Z,18.58
2018-03-11T12:24:11.698Z,18.19
2018-03-11T12:26:39.371Z,18.94
2018-03-11T12:29:06.945Z,17.64
2018-03-11T12:31:34.670Z,18.13
2018-03-11T12:34:02.384Z,18.62
2018-03-11T12:36:30.010Z,17.75
2018-03-11T12:38:57.602Z,17.68
2018-03-11T12:41:25.164Z,18.94
2018-03-11T12:43:52.724Z,19.10
2018-03-11T12:46:20.360Z,20.58
2018-03-11T12:48:47.921Z,20.39
2018-03-11T12:51:15.488Z,20.72
2018-03-11T12:53:43.141Z,20.16
2018-03-11T12:56:10.694Z,20.47
2018-03-11T12:58:38.239Z,21.46
2018-03-11T13:01:05.873Z,22.09
2018-03-11T13:03:33.475Z,19.42
2018-03-11T13:06:01.131Z,17.45
2018-03-11T13:08:28.701Z,16.43
2018-03-11T13:10:56.305Z,17.55
2018-03-11T13:13:23.867Z,17.72
2018-03-11T13:15:51.459Z,16.59
2018-03-11T13:18:19.236Z,17.07
2018-03-11T13:20:58.605Z,17.54
2018-03-11T13:23:26.153Z,17.98
2018-03-11T13:25:53.728Z,17.80
2018-03-11T13:28:33.203Z,18.79
2018-03-11T13:31:00.780Z,20.88
2018-03-11T13:33:40.212Z,19.71
2018-03-11T13:36:07.928Z,19.94
2018-03-11T13:38:47.353Z,19.08
2018-03-11T13:41:15.086Z,18.62
2018-03-11T13:43:42.653Z,17.01
2018-03-11T13:46:22.089Z,16.95
2018-03-11T13:48:49.654Z,17.41
2018-03-11T13:51:29.069Z,18.29
2018-03-11T13:53:56.730Z,18.67
2018-03-11T13:56:24.283Z,20.39
2018-03-11T13:58:51.885Z,21.19
2018-03-11T14:01:19.456Z,21.50
2018-03-11T14:03:47.195Z,22.17
2018-03-11T14:06:15.283Z,22.71
2018-03-11T14:08:43.355Z,24.01
2018-03-11T14:11:10.919Z,24.21
2018-03-11T14:13:38.674Z,24.76
2018-03-11T14:16:06.227Z,25.21
2018-03-11T14:18:33.997Z,26.62
2018-03-11T14:21:01.920Z,26.51
2018-03-11T14:23:29.466Z,27.16
2018-03-11T14:25:57.031Z,27.54
2018-03-11T14:28:24.642Z,28.11
2018-03-11T14:30:52.208Z,28.46
2018-03-11T14:33:20.189Z,28.58
2018-03-11T14:35:47.833Z,29.12
2018-03-11T14:38:16.514Z,29.24
2018-03-11T14:40:44.403Z,29.63
2018-03-11T14:43:12.700Z,30.04
2018-03-11T14:45:41.140Z,30.28
2018-03-11T14:48:09.146Z,29.38
2018-03-11T14:50:36.805Z,29.73
2018-03-11T14:53:04.655Z,30.24
2018-03-11T14:55:32.241Z,30.24
2018-03-11T14:58:00.082Z,30.85
2018-03-11T15:00:27.688Z,31.57
2018-03-11T15:02:55.286Z,32.09
2018-03-11T15:05:22.893Z,32.13
2018-03-11T15:07:51.544Z,32.32
2018-03-11T15:10:19.413Z,32.78
2018-03-11T15:12:47.832Z,33.14
2018-03-11T15:15:15.386Z,32.90
2018-03-11T15:17:43.031Z,32.86
2018-03-11T15:20:10.615Z,33.63
2018-03-11T15:22:38.208Z,33.32
2018-03-11T15:25:05.782Z,33.68
2018-03-11T15:27:33.392Z,34.30
2018-03-11T15:30:01.238Z,34.22
2018-03-11T15:32:29.041Z,34.64
2018-03-11T15:34:57.090Z,33.91
2018-03-11T15:37:24.697Z,34.44
2018-03-11T15:39:52.375Z,34.47
2018-03-11T15:42:20.644Z,34.59
2018-03-11T15:44:48.523Z,35.01
2018-03-11T15:47:16.276Z,34.71
2018-03-11T15:49:44.482Z,34.95
2018-03-11T15:52:12.053Z,35.00
2018-03-11T15:54:39.910Z,35.92
2018-03-11T15:57:07.943Z,36.59
2018-03-11T15:59:35.926Z,36.10
2018-03-11T16:02:04.604Z,36.07
2018-03-11T16:04:33.375Z,36.37
2018-03-11T16:07:01.645Z,37.09
2018-03-11T16:09:29.854Z,38.20
2018-03-11T16:11:57.525Z,39.21
2018-03-11T16:14:25.687Z,38.93
2018-03-11T16:16:53.290Z,40.05
2018-03-11T16:19:21.651Z,40.14
2018-03-11T16:21:49.880Z,40.96
2018-03-11T16:24:28.280Z,41.35
2018-03-11T16:26:45.063Z,42.36
2018-03-11T16:29:12.621Z,43.46
2018-03-11T16:31:40.207Z,43.73
2018-03-11T16:34:08.158Z,44.31
2018-03-11T16:36:35.717Z,44.32
2018-03-11T16:39:03.427Z,46.50
2018-03-11T16:41:31.422Z,46.19
2018-03-11T16:43:59.419Z,47.61
2018-03-11T16:46:27.278Z,47.05
2018-03-11T16:48:55.824Z,47.64
2018-03-11T16:51:24.264Z,48.11
2018-03-11T16:53:51.961Z,49.01
2018-03-11T16:56:20.700Z,50.91
2018-03-11T16:58:48.536Z,52.00
2018-03-11T17:01:16.122Z,51.67
2018-03-11T17:03:43.728Z,51.25
2018-03-11T17:06:11.423Z,51.33
2018-03-11T17:08:39.689Z,51.40
2018-03-11T17:11:07.350Z,51.92
2018-03-11T17:13:35.666Z,51.59
2018-03-11T17:16:03.287Z,53.89
2018-03-11T17:18:31.875Z,53.75
2018-03-11T17:20:59.447Z,54.65
2018-03-11T17:23:27.413Z,54.70
2018-03-11T17:25:56.459Z,55.47
2018-03-11T17:28:24.700Z,56.16
2018-03-11T17:30:52.714Z,57.45
2018-03-11T17:33:21.158Z,58.03
2018-03-11T17:35:49.336Z,59.06
2018-03-11T17:38:17.567Z,58.82
2018-03-11T17:40:46.161Z,60.23
2018-03-11T17:43:14.265Z,60.58
2018-03-11T17:45:42.559Z,59.61
2018-03-11T17:48:10.819Z,59.34
2018-03-11T17:50:39.339Z,59.66
2018-03-11T17:53:07.497Z,60.58
2018-03-11T17:55:35.492Z,60.60
2018-03-11T17:58:03.932Z,61.17
2018-03-11T18:00:31.865Z,60.44
2018-03-11T18:02:59.507Z,60.59
2018-03-11T18:05:27.184Z,60.94
2018-03-11T18:07:56.094Z,60.41
2018-03-11T18:10:24.384Z,60.21
2018-03-11T18:12:51.958Z,62.54
2018-03-11T18:15:20.561Z,64.06
2018-03-11T18:17:48.388Z,65.93
2018-03-11T18:20:16.289Z,65.39
2018-03-11T18:22:43.886Z,65.70
2018-03-11T18:25:11.965Z,67.03
2018-03-11T18:27:39.997Z,66.37
2018-03-11T18:30:07.761Z,68.05
2018-03-11T18:32:35.390Z,66.89
2018-03-11T18:35:03.799Z,70.86
2018-03-11T18:37:32.292Z,67.89
2018-03-11T18:40:00.888Z,68.46
2018-03-11T18:42:29.166Z,69.69
2018-03-11T18:44:57.404Z,67.19
2018-03-11T18:47:25.466Z,69.24
2018-03-11T18:49:54.195Z,65.85
2018-03-11T18:52:22.594Z,68.84
2018-03-11T18:54:50.900Z,69.83
2018-03-11T18:57:18.823Z,69.56
2018-03-11T18:59:47.822Z,69.20
2018-03-11T19:02:16.100Z,72.00
2018-03-11T19:04:44.588Z,71.60
2018-03-11T19:07:13.104Z,71.75
2018-03-11T19:09:41.667Z,73.02
2018-03-11T19:12:09.629Z,72.65
2018-03-11T19:14:37.699Z,70.65
2018-03-11T19:17:05.910Z,68.82
2018-03-11T19:19:33.732Z,68.32
2018-03-11T19:22:02.359Z,69.05
2018-03-11T19:24:33.198Z,69.73
2018-03-11T19:27:00.769Z,72.10
2018-03-11T19:29:28.807Z,71.56
2018-03-11T19:31:56.960Z,71.95
2018-03-11T19:34:24.765Z,71.78
2018-03-11T19:36:52.319Z,73.89
2018-03-11T19:39:20.645Z,74.77
2018-03-11T19:41:48.727Z,73.63
2018-03-11T19:44:17.034Z,74.51
2018-03-11T19:46:44.671Z,74.21
2018-03-11T19:49:12.715Z,74.16
2018-03-11T19:51:40.829Z,74.63
2018-03-11T19:54:09.013Z,75.53
2018-03-11T19:56:36.975Z,76.19
2018-03-11T19:59:04.556Z,76.73
2018-03-11T20:01:32.827Z,77.02
2018-03-11T20:04:00.879Z,77.63
2018-03-11T20:06:28.439Z,78.16
2018-03-11T20:08:56.038Z,78.44
2018-03-11T20:11:23.595Z,78.46
2018-03-11T20:13:51.731Z,80.01
2018-03-11T20:16:19.364Z,79.86
2018-03-11T20:18:46.964Z,80.03
2018-03-11T20:21:14.706Z,80.20
2018-03-11T20:23:42.318Z,80.20
2018-03-11T20:26:10.228Z,81.10
2018-03-11T20:28:37.793Z,80.55
2018-03-11T20:31:05.393Z,80.29
2018-03-11T20:33:33.743Z,80.37
2018-03-11T20:36:01.338Z,80.40
2018-03-11T20:38:28.940Z,81.07
2018-03-11T20:40:56.515Z,81.19
2018-03-11T20:43:24.369Z,81.34
2018-03-11T20:45:51.982Z,81.54
2018-03-11T20:48:19.619Z,80.83
2018-03-11T20:50:47.117Z,81.42
2018-03-11T20:53:14.713Z,81.78
2018-03-11T20:55:42.283Z,81.65
2018-03-11T20:58:10.023Z,81.89
2018-03-11T21:00:37.697Z,82.05
2018-03-11T21:03:05.259Z,83.23
2018-03-11T21:05:32.823Z,83.16
2018-03-11T21:08:00.426Z,82.50
2018-03-11T21:10:27.973Z,82.91
2018-03-11T21:12:55.526Z,82.98
2018-03-11T21:15:23.254Z,83.14
2018-03-11T21:17:50.806Z,83.42
2018-03-11T21:20:18.383Z,83.47
2018-03-11T21:22:46.045Z,83.92
2018-03-11T21:25:13.719Z,83.94
2018-03-11T21:27:41.275Z,83.87
2018-03-11T21:30:08.868Z,83.75
2018-03-11T21:32:36.434Z,84.48
2018-03-11T21:35:04.122Z,84.25
2018-03-11T21:37:31.731Z,84.40
2018-03-11T21:39:59.291Z,84.31
2018-03-11T21:42:26.845Z,84.54
2018-03-11T21:44:54.564Z,84.34
2018-03-11T21:47:22.252Z,85.26
2018-03-11T21:49:49.829Z,85.81
2018-03-11T21:52:17.592Z,85.97
2018-03-11T21:54:45.234Z,85.91
2018-03-11T21:57:12.897Z,86.30
2018-03-11T21:59:40.480Z,86.49
2018-03-11T22:02:08.053Z,86.70
2018-03-11T22:04:35.615Z,86.61
2018-03-11T22:07:03.222Z,86.69
2018-03-11T22:09:30.792Z,86.81
2018-03-11T22:11:58.354Z,87.49
2018-03-11T22:14:25.960Z,87.15
2018-03-11T22:16:53.561Z,87.22
2018-03-11T22:19:21.252Z,86.75
2018-03-11T22:21:48.868Z,87.61
2018-03-11T22:24:16.420Z,87.84
2018-03-11T22:26:43.975Z,87.88
2018-03-11T22:29:11.625Z,89.05
2018-03-11T22:31:39.191Z,89.54
2018-03-11T22:34:06.751Z,88.96
2018-03-11T22:36:34.350Z,89.53
2018-03-11T22:39:01.915Z,89.21
2018-03-11T22:41:29.478Z,89.67
2018-03-11T22:43:57.087Z,89.95
2018-03-11T22:46:24.736Z,89.88
2018-03-11T22:48:52.281Z,90.22
2018-03-11T22:51:19.903Z,90.41
2018-03-11T22:53:47.460Z,90.78
2018-03-11T22:56:15.151Z,90.47
2018-03-11T22:58:42.818Z,90.56
2018-03-11T23:01:10.478Z,90.55
2018-03-11T23:03:38.057Z,90.81
2018-03-11T23:06:05.664Z,90.94
2018-03-11T23:08:33.267Z,91.11
2018-03-11T23:11:00.840Z,91.25
2018-03-11T23:13:28.449Z,91.45
2018-03-11T23:15:56.023Z,92.05
2018-03-11T23:18:23.705Z,92.13
2018-03-11T23:20:51.361Z,92.33
2018-03-11T23:23:18.927Z,92.00
2018-03-11T23:25:46.695Z,91.85
2018-03-11T23:28:14.304Z,91.60
2018-03-11T23:30:41.856Z,91.63
2018-03-11T23:33:09.423Z,91.88
2018-03-11T23:35:37.030Z,92.11
2018-03-11T23:38:04.816Z,92.44
2018-03-11T23:40:32.387Z,92.44
2018-03-11T23:43:00.115Z,92.85
2018-03-11T23:45:27.682Z,93.36
2018-03-11T23:47:55.268Z,93.29
2018-03-11T23:50:22.893Z,92.93
2018-03-11T23:52:50.559Z,92.53
2018-03-11T23:55:18.119Z,91.97
2018-03-11T23:57:45.706Z,91.89
